Time;durP1;ratioP1;P1;durP2;ratioP2;P2;SDS_P1;SDS_P2;PMS_P1;PMS_P2;Temp;Humidity;BMP_temperature;BMP_pressure;BME280_temperature;BME280_humidity;BME280_pressure;Samples;Min_cycle;Max_cycle;Signal;HPM_P1;HPM_P2
2022/08/10 00:00:25;;;;;;;0.40;0.40;;;14.90;99.90;;;;;;4959528;28;20135;-80
2022/08/10 00:02:57;;;;;;;0.50;0.50;;;14.90;99.90;;;;;;4955974;28;20061;-80
2022/08/10 00:05:23;;;;;;;0.40;0.40;;;14.90;99.90;;;;;;4958276;28;20671;-80
2022/08/10 00:07:50;;;;;;;0.40;0.40;;;14.90;99.90;;;;;;4957697;28;20050;-80
2022/08/10 00:10:18;;;;;;;0.40;0.40;;;15.00;99.90;;;;;;4956246;28;20050;-79
2022/08/10 00:12:44;;;;;;;0.40;0.40;;;14.90;99.90;;;;;;4953335;28;20053;-79
2022/08/10 00:15:13;;;;;;;0.40;0.40;;;14.90;99.90;;;;;;4955937;28;20497;-79
2022/08/10 00:17:39;;;;;;;0.40;0.40;;;15.00;99.90;;;;;;4954616;28;20125;-79
2022/08/10 00:20:06;;;;;;;0.40;0.40;;;14.90;99.90;;;;;;4951847;28;20050;-80
2022/08/10 00:22:31;;;;;;;0.40;0.40;;;14.80;99.90;;;;;;4952332;28;20047;-79
2022/08/10 00:24:58;;;;;;;0.40;0.40;;;14.90;99.90;;;;;;4953576;28;20104;-80
2022/08/10 00:27:24;;;;;;;0.32;0.32;;;14.90;99.90;;;;;;4952251;28;20152;-79
2022/08/10 00:29:50;;;;;;;0.40;0.40;;;14.90;99.90;;;;;;4936355;28;20133;-79
2022/08/10 00:32:16;;;;;;;0.40;0.40;;;14.90;99.90;;;;;;4964486;28;20064;-79
2022/08/10 00:34:42;;;;;;;0.40;0.40;;;14.90;99.90;;;;;;4939382;28;20556;-79
2022/08/10 00:37:08;;;;;;;0.40;0.40;;;14.90;99.90;;;;;;4957591;28;20069;-79
2022/08/10 00:39:34;;;;;;;0.40;0.40;;;14.80;99.90;;;;;;4962030;28;20069;-79
2022/08/10 00:41:59;;;;;;;0.40;0.40;;;14.80;99.90;;;;;;4960430;28;20046;-80
2022/08/10 00:44:25;;;;;;;0.40;0.40;;;14.80;99.90;;;;;;4960637;28;20046;-79
2022/08/10 00:46:51;;;;;;;0.40;0.40;;;14.80;99.90;;;;;;4964671;28;20049;-79
2022/08/10 00:49:17;;;;;;;0.40;0.40;;;14.70;99.90;;;;;;4957443;28;20058;-79
2022/08/10 00:51:43;;;;;;;0.40;0.40;;;14.80;99.90;;;;;;4959654;28;20134;-79
2022/08/10 00:54:09;;;;;;;0.40;0.40;;;14.80;99.90;;;;;;4959034;28;20116;-79
2022/08/10 00:56:35;;;;;;;0.40;0.40;;;14.80;99.90;;;;;;4958717;28;20053;-79
2022/08/10 00:59:01;;;;;;;0.30;0.30;;;14.70;99.90;;;;;;4963835;28;20093;-79
2022/08/10 01:01:27;;;;;;;0.40;0.40;;;14.70;99.90;;;;;;4940151;28;20173;-79
2022/08/10 01:03:53;;;;;;;0.40;0.40;;;14.70;99.90;;;;;;4959768;28;20065;-79
2022/08/10 01:06:44;;;;;;;0.40;0.40;;;14.60;99.90;;;;;;4956249;28;20038;-79
2022/08/10 01:09:27;;;;;;;0.40;0.40;;;14.60;99.90;;;;;;4959508;28;20078;-79
2022/08/10 01:12:11;;;;;;;0.40;0.40;;;14.60;99.90;;;;;;4956118;28;20054;-79
2022/08/10 01:14:53;;;;;;;0.40;0.40;;;14.60;99.90;;;;;;4956778;28;20050;-79
2022/08/10 01:17:41;;;;;;;0.40;0.40;;;14.70;99.90;;;;;;4963883;28;20050;-79
2022/08/10 01:20:33;;;;;;;0.40;0.40;;;14.60;99.90;;;;;;4971479;28;20047;-79
2022/08/10 01:23:27;;;;;;;0.40;0.40;;;14.60;99.90;;;;;;4988328;28;20054;-79
2022/08/10 01:26:12;;;;;;;0.40;0.40;;;14.60;99.90;;;;;;4968863;28;20050;-79
2022/08/10 01:29:16;;;;;;;0.40;0.40;;;14.60;99.90;;;;;;4968420;28;20054;-79
2022/08/10 01:31:48;;;;;;;0.40;0.40;;;14.60;99.90;;;;;;4929219;28;20053;-79
2022/08/10 01:34:19;;;;;;;0.50;0.50;;;14.60;99.90;;;;;;4973717;28;20152;-79
2022/08/10 01:36:48;;;;;;;0.40;0.40;;;14.60;99.90;;;;;;4970750;28;20049;-79
2022/08/10 01:39:26;;;;;;;0.40;0.40;;;14.60;99.90;;;;;;4978945;28;20050;-79
2022/08/10 01:41:59;;;;;;;0.40;0.40;;;14.60;99.90;;;;;;4984661;28;20058;-79
2022/08/10 01:44:31;;;;;;;0.40;0.40;;;14.60;99.90;;;;;;4968475;28;20061;-79
2022/08/10 01:50:38;;;;;;;0.40;0.40;;;14.60;99.90;;;;;;4963495;28;20061;-79
2022/08/10 01:53:12;;;;;;;0.40;0.40;;;14.60;99.90;;;;;;4967498;28;20049;-79
2022/08/10 01:55:40;;;;;;;0.40;0.40;;;14.60;99.90;;;;;;4974413;28;20156;-79
2022/08/10 01:58:08;;;;;;;0.40;0.40;;;14.60;99.90;;;;;;4949891;28;20089;-79
2022/08/10 02:00:37;;;;;;;0.40;0.40;;;14.60;99.90;;;;;;4971061;28;20050;-79
2022/08/10 02:03:06;;;;;;;0.40;0.40;;;14.60;99.90;;;;;;4968268;28;20069;-79
2022/08/10 02:05:34;;;;;;;0.43;0.43;;;14.60;99.90;;;;;;4970818;28;21337;-79
2022/08/10 02:08:01;;;;;;;0.40;0.40;;;14.60;99.90;;;;;;4965507;28;20116;-79
2022/08/10 02:10:29;;;;;;;0.40;0.40;;;14.60;99.90;;;;;;4967563;28;20060;-79
2022/08/10 02:12:57;;;;;;;0.40;0.40;;;14.60;99.90;;;;;;4951519;28;20054;-79
2022/08/10 02:15:27;;;;;;;0.40;0.40;;;14.70;99.90;;;;;;4972268;28;20038;-79
2022/08/10 02:17:58;;;;;;;0.40;0.40;;;14.60;99.90;;;;;;4969817;28;20607;-79
2022/08/10 02:20:27;;;;;;;0.43;0.43;;;14.60;99.90;;;;;;4972898;28;20077;-80
2022/08/10 02:23:00;;;;;;;0.40;0.40;;;14.60;99.90;;;;;;4970348;28;20170;-80
2022/08/10 02:25:27;;;;;;;0.40;0.40;;;14.70;99.90;;;;;;4973384;28;20100;-79
2022/08/10 02:27:54;;;;;;;0.40;0.40;;;14.60;99.90;;;;;;4971081;28;20062;-79
2022/08/10 02:30:21;;;;;;;0.40;0.40;;;14.70;99.90;;;;;;4971658;28;20046;-79
2022/08/10 02:32:48;;;;;;;0.40;0.40;;;14.70;99.90;;;;;;4975432;28;20046;-79
2022/08/10 02:35:16;;;;;;;0.40;0.40;;;14.70;99.90;;;;;;4967243;28;20757;-79
2022/08/10 02:37:46;;;;;;;0.40;0.40;;;14.60;99.90;;;;;;4974177;28;20054;-79
2022/08/10 02:40:12;;;;;;;0.32;0.32;;;14.60;99.90;;;;;;4969075;28;20104;-79
2022/08/10 02:42:44;;;;;;;0.52;0.50;;;14.60;99.90;;;;;;4972869;28;20341;-79
2022/08/10 02:45:22;;;;;;;0.40;0.40;;;14.60;99.90;;;;;;4974313;28;20042;-80
2022/08/10 02:48:02;;;;;;;0.40;0.40;;;14.60;99.90;;;;;;4971952;28;20053;-79
2022/08/10 02:50:32;;;;;;;0.40;0.40;;;14.60;99.90;;;;;;4965857;28;20062;-80
2022/08/10 02:53:22;;;;;;;0.40;0.40;;;14.60;99.90;;;;;;4970313;28;20065;-80
2022/08/10 02:55:59;;;;;;;0.40;0.40;;;14.70;99.90;;;;;;4975234;28;20127;-79
2022/08/10 02:58:33;;;;;;;0.40;0.40;;;14.70;99.90;;;;;;4972694;28;20056;-79
2022/08/10 03:01:03;;;;;;;0.50;0.50;;;14.70;99.90;;;;;;4972144;28;20060;-79
2022/08/10 03:03:58;;;;;;;0.40;0.40;;;14.70;99.90;;;;;;4969982;28;20072;-79
2022/08/10 03:06:31;;;;;;;0.40;0.40;;;14.60;99.90;;;;;;4969026;28;20058;-80
2022/08/10 03:08:59;;;;;;;0.40;0.40;;;14.70;99.90;;;;;;4967972;28;20050;-80
2022/08/10 03:11:28;;;;;;;0.40;0.40;;;14.60;99.90;;;;;;4979168;28;20049;-79
2022/08/10 03:13:56;;;;;;;0.40;0.40;;;14.60;99.90;;;;;;4972992;28;20062;-79
2022/08/10 03:16:22;;;;;;;0.40;0.40;;;14.60;99.90;;;;;;4970424;28;20085;-79
2022/08/10 03:18:49;;;;;;;0.40;0.40;;;14.60;99.90;;;;;;4970646;28;20101;-79
2022/08/10 03:21:17;;;;;;;0.40;0.40;;;14.50;99.90;;;;;;4966536;28;20088;-80
2022/08/10 03:23:44;;;;;;;0.40;0.40;;;14.50;99.90;;;;;;4969835;28;20042;-79
2022/08/10 03:26:13;;;;;;;0.40;0.40;;;14.50;99.90;;;;;;4983054;28;20503;-80
2022/08/10 03:28:40;;;;;;;0.40;0.40;;;14.40;99.90;;;;;;4981903;28;21942;-79
2022/08/10 03:31:06;;;;;;;0.35;0.35;;;14.30;99.90;;;;;;4984751;28;20077;-79
2022/08/10 03:33:37;;;;;;;0.40;0.40;;;14.30;99.90;;;;;;4968439;28;20050;-79
2022/08/10 03:36:05;;;;;;;0.40;0.40;;;14.30;99.90;;;;;;4960701;28;20038;-80
2022/08/10 03:38:32;;;;;;;0.40;0.40;;;14.30;99.90;;;;;;4970560;28;20050;-79
2022/08/10 03:41:02;;;;;;;0.40;0.40;;;14.30;99.90;;;;;;4965203;28;20050;-79
2022/08/10 03:43:28;;;;;;;0.40;0.40;;;14.30;99.90;;;;;;4970309;28;20564;-79
2022/08/10 03:45:57;;;;;;;0.40;0.40;;;14.30;99.90;;;;;;4968670;28;20054;-79
2022/08/10 03:48:29;;;;;;;0.40;0.40;;;14.30;99.90;;;;;;4970326;28;20124;-79
2022/08/10 03:50:57;;;;;;;0.40;0.40;;;14.30;99.90;;;;;;4969117;28;20061;-80
2022/08/10 03:53:23;;;;;;;0.40;0.40;;;14.20;99.90;;;;;;4971828;28;20050;-80
2022/08/10 03:55:50;;;;;;;0.40;0.40;;;14.20;99.90;;;;;;4975005;28;21585;-80
2022/08/10 03:58:16;;;;;;;0.40;0.40;;;14.20;99.90;;;;;;4969102;28;20053;-80
2022/08/10 04:00:43;;;;;;;0.40;0.40;;;14.20;99.90;;;;;;4973929;28;20042;-80
2022/08/10 04:03:09;;;;;;;0.40;0.40;;;14.20;99.90;;;;;;4967629;28;20597;-80
2022/08/10 04:05:36;;;;;;;0.40;0.40;;;14.20;99.90;;;;;;4972557;28;21711;-80
2022/08/10 04:08:02;;;;;;;0.40;0.40;;;14.10;99.90;;;;;;4971922;28;20444;-80
2022/08/10 04:10:28;;;;;;;0.40;0.40;;;14.10;99.90;;;;;;4968338;28;20173;-80
2022/08/10 04:12:55;;;;;;;0.75;0.75;;;14.10;99.90;;;;;;4972946;28;20050;-80
2022/08/10 04:15:23;;;;;;;0.40;0.40;;;14.10;99.90;;;;;;4970156;28;20400;-80
2022/08/10 04:17:50;;;;;;;0.40;0.40;;;14.20;99.90;;;;;;4971844;28;20532;-80
2022/08/10 04:20:28;;;;;;;0.40;0.40;;;14.20;99.90;;;;;;4967379;28;20057;-80
2022/08/10 04:22:55;;;;;;;0.40;0.40;;;14.20;99.90;;;;;;4978766;28;20687;-81
2022/08/10 04:25:23;;;;;;;0.40;0.40;;;14.20;99.90;;;;;;4963726;28;20054;-80
2022/08/10 04:27:50;;;;;;;0.40;0.40;;;14.30;99.90;;;;;;4967174;28;20105;-80
2022/08/10 04:30:16;;;;;;;0.40;0.40;;;14.30;99.90;;;;;;4971680;28;20057;-80
2022/08/10 04:32:44;;;;;;;0.40;0.40;;;14.30;99.90;;;;;;4971150;28;20058;-81
2022/08/10 04:35:12;;;;;;;0.40;0.40;;;14.30;99.90;;;;;;4973254;28;20540;-80
2022/08/10 04:37:40;;;;;;;0.40;0.40;;;14.30;99.90;;;;;;4972644;28;20038;-79
2022/08/10 04:40:06;;;;;;;0.40;0.40;;;14.30;99.90;;;;;;4968992;28;20097;-80
2022/08/10 04:42:32;;;;;;;0.40;0.40;;;14.40;99.90;;;;;;4976201;28;21063;-80
2022/08/10 04:44:58;;;;;;;0.47;0.40;;;14.30;99.90;;;;;;4971183;28;20085;-80
2022/08/10 04:47:24;;;;;;;0.40;0.40;;;14.30;99.90;;;;;;4967585;28;20049;-80
2022/08/10 04:49:50;;;;;;;0.50;0.50;;;14.30;99.90;;;;;;4971431;28;20054;-80
2022/08/10 04:52:17;;;;;;;0.40;0.40;;;14.30;99.90;;;;;;4973497;28;20746;-80
2022/08/10 04:54:43;;;;;;;0.40;0.40;;;14.20;99.90;;;;;;4972097;28;20041;-79
2022/08/10 04:57:08;;;;;;;0.40;0.40;;;14.30;99.90;;;;;;4972866;28;20518;-80
2022/08/10 04:59:34;;;;;;;0.40;0.40;;;14.30;99.90;;;;;;4974042;28;20057;-80
2022/08/10 05:02:00;;;;;;;0.43;0.43;;;14.20;99.90;;;;;;4964285;28;20051;-80
2022/08/10 05:04:26;;;;;;;0.40;0.40;;;14.30;99.90;;;;;;4974894;28;20045;-80
2022/08/10 05:06:52;;;;;;;0.40;0.40;;;14.30;99.90;;;;;;4971754;28;20074;-80
2022/08/10 05:09:17;;;;;;;0.40;0.40;;;14.30;99.90;;;;;;4968101;28;20133;-80
2022/08/10 05:11:43;;;;;;;0.40;0.40;;;14.30;99.90;;;;;;4969659;28;20053;-80
2022/08/10 05:14:09;;;;;;;0.40;0.40;;;14.50;99.90;;;;;;4966770;28;20084;-80
2022/08/10 05:16:35;;;;;;;0.40;0.40;;;14.60;99.90;;;;;;4972421;28;20046;-80
2022/08/10 05:19:01;;;;;;;0.40;0.40;;;14.80;99.90;;;;;;4975793;28;20820;-80
2022/08/10 05:21:26;;;;;;;0.40;0.40;;;15.30;99.90;;;;;;4972924;28;20054;-80
2022/08/10 05:23:52;;;;;;;0.40;0.40;;;16.30;99.90;;;;;;4978639;28;20798;-80
2022/08/10 05:26:18;;;;;;;0.40;0.40;;;17.30;99.90;;;;;;4984935;28;20047;-80
2022/08/10 05:28:44;;;;;;;0.40;0.40;;;18.60;99.90;;;;;;4972463;28;20056;-80
2022/08/10 05:31:09;;;;;;;0.30;0.30;;;19.70;99.90;;;;;;4972964;28;20057;-81
2022/08/10 05:33:35;;;;;;;0.30;0.30;;;20.30;99.90;;;;;;4951866;28;20053;-80
2022/08/10 05:36:02;;;;;;;0.43;0.43;;;20.70;99.90;;;;;;4970780;28;20053;-81
2022/08/10 05:38:29;;;;;;;0.40;0.40;;;21.60;99.90;;;;;;4971814;28;20246;-78
2022/08/10 05:40:56;;;;;;;0.38;0.38;;;21.70;99.90;;;;;;4974007;28;20505;-80
2022/08/10 05:43:22;;;;;;;0.30;0.30;;;21.80;99.90;;;;;;4972318;28;20872;-80
2022/08/10 05:45:50;;;;;;;0.40;0.40;;;22.30;99.90;;;;;;4969822;28;20091;-80
2022/08/10 05:48:16;;;;;;;0.40;0.40;;;22.70;99.90;;;;;;4972857;28;20552;-80
2022/08/10 05:50:42;;;;;;;0.40;0.40;;;23.20;99.90;;;;;;4970368;28;20048;-80
2022/08/10 05:53:07;;;;;;;0.57;0.40;;;23.40;99.90;;;;;;4970670;28;20243;-80
2022/08/10 05:55:33;;;;;;;0.45;0.45;;;22.50;99.90;;;;;;4968441;28;20137;-80
2022/08/10 05:58:00;;;;;;;0.38;0.38;;;21.30;99.90;;;;;;4971655;28;20058;-80
2022/08/10 06:00:26;;;;;;;0.30;0.30;;;20.40;99.90;;;;;;4966935;28;20144;-80
2022/08/10 06:02:58;;;;;;;0.40;0.40;;;20.10;99.90;;;;;;4972631;28;20042;-81
2022/08/10 06:05:26;;;;;;;0.30;0.30;;;19.70;99.90;;;;;;4966857;28;20057;-80
2022/08/10 06:08:02;;;;;;;0.30;0.30;;;19.60;99.90;;;;;;4977965;28;20108;-81
2022/08/10 06:10:30;;;;;;;0.30;0.30;;;19.50;99.90;;;;;;4971922;28;20057;-80
2022/08/10 06:15:44;;;;;;;0.40;0.40;;;19.20;99.90;;;;;;4971889;28;20060;-80
2022/08/10 06:18:14;;;;;;;0.30;0.30;;;19.20;99.90;;;;;;4969124;28;20050;-81
2022/08/10 06:20:41;;;;;;;0.50;0.50;;;18.90;99.90;;;;;;4972099;28;20069;-80
2022/08/10 06:23:08;;;;;;;0.35;0.35;;;18.80;99.90;;;;;;4962803;28;20758;-81
2022/08/10 06:25:34;;;;;;;0.30;0.30;;;18.80;99.90;;;;;;4975761;28;20108;-79
2022/08/10 06:28:00;;;;;;;0.30;0.30;;;18.80;99.90;;;;;;4971793;28;20050;-81
2022/08/10 06:30:28;;;;;;;0.30;0.30;;;18.70;99.90;;;;;;4969973;28;20117;-80
2022/08/10 06:32:56;;;;;;;0.32;0.32;;;18.80;99.90;;;;;;4986525;28;20122;-80
2022/08/10 06:35:26;;;;;;;0.30;0.30;;;18.80;99.90;;;;;;4971049;28;20041;-80
2022/08/10 06:37:54;;;;;;;0.30;0.30;;;19.10;99.90;;;;;;4973464;28;20053;-80
2022/08/10 06:40:20;;;;;;;0.30;0.30;;;19.30;99.90;;;;;;4975381;28;21991;-80
2022/08/10 06:42:48;;;;;;;0.32;0.32;;;19.50;99.90;;;;;;4974709;28;20061;-81
2022/08/10 06:45:17;;;;;;;0.30;0.30;;;19.90;99.90;;;;;;4975448;28;20057;-80
2022/08/10 06:47:50;;;;;;;0.30;0.30;;;20.10;99.90;;;;;;4957307;28;20053;-81
2022/08/10 06:50:19;;;;;;;0.30;0.30;;;20.50;99.90;;;;;;4972281;28;20128;-80
2022/08/10 06:52:48;;;;;;;0.30;0.30;;;20.00;99.90;;;;;;4969695;28;20116;-81
2022/08/10 06:55:15;;;;;;;0.30;0.30;;;19.80;99.90;;;;;;4971635;28;20081;-81
2022/08/10 06:57:42;;;;;;;0.30;0.30;;;20.20;99.90;;;;;;4971915;28;20576;-81
2022/08/10 07:00:10;;;;;;;0.30;0.30;;;20.50;99.90;;;;;;4983772;28;20768;-80
2022/08/10 07:02:47;;;;;;;0.30;0.30;;;20.90;99.90;;;;;;4968857;28;20100;-81
2022/08/10 07:05:19;;;;;;;0.30;0.30;;;20.90;99.90;;;;;;4973490;28;20105;-81
2022/08/10 07:07:49;;;;;;;0.30;0.30;;;20.80;99.90;;;;;;4969213;28;20145;-81
2022/08/10 07:10:18;;;;;;;0.30;0.30;;;20.70;99.90;;;;;;4976080;28;20046;-81
2022/08/10 07:12:46;;;;;;;0.45;0.30;;;21.10;99.90;;;;;;4971886;28;20065;-81
2022/08/10 07:15:13;;;;;;;0.40;0.40;;;21.30;99.90;;;;;;4981354;28;21301;-80
2022/08/10 07:17:40;;;;;;;0.30;0.30;;;21.40;99.90;;;;;;4974281;28;20050;-81
2022/08/10 07:20:08;;;;;;;0.30;0.30;;;21.10;99.90;;;;;;4966570;28;20078;-80
2022/08/10 07:22:36;;;;;;;0.30;0.30;;;21.50;99.90;;;;;;4970997;28;20627;-80
2022/08/10 07:25:04;;;;;;;0.30;0.30;;;21.60;99.90;;;;;;4966090;28;20122;-81
2022/08/10 07:27:31;;;;;;;0.32;0.32;;;21.70;99.90;;;;;;4953134;28;20050;-80
2022/08/10 07:29:59;;;;;;;0.30;0.30;;;21.70;99.90;;;;;;4968954;28;20900;-81
2022/08/10 07:32:26;;;;;;;0.30;0.30;;;22.00;99.90;;;;;;4976694;28;20050;-81
2022/08/10 07:34:54;;;;;;;0.30;0.30;;;22.10;99.90;;;;;;4954621;28;20851;-81
2022/08/10 07:37:22;;;;;;;0.30;0.30;;;22.20;99.90;;;;;;4952671;28;20784;-80
2022/08/10 07:39:51;;;;;;;0.30;0.30;;;22.10;99.90;;;;;;4981198;28;20089;-83
2022/08/10 07:42:21;;;;;;;0.30;0.30;;;22.10;99.90;;;;;;4970510;28;20805;-82
2022/08/10 07:44:49;;;;;;;0.30;0.30;;;22.60;99.90;;;;;;4972408;28;20061;-81
2022/08/10 07:47:21;;;;;;;0.30;0.30;;;22.70;99.90;;;;;;4969578;28;20590;-81
2022/08/10 07:49:48;;;;;;;0.30;0.30;;;22.20;99.90;;;;;;4977734;28;20046;-81
2022/08/10 07:52:13;;;;;;;0.30;0.30;;;22.80;99.90;;;;;;4969261;28;20053;-81
2022/08/10 07:54:42;;;;;;;0.30;0.30;;;22.60;99.90;;;;;;4977521;28;20859;-82
2022/08/10 07:57:24;;;;;;;0.30;0.30;;;22.90;99.90;;;;;;4984611;28;20060;-81
2022/08/10 07:59:55;;;;;;;0.30;0.30;;;23.00;99.90;;;;;;4968621;28;20072;-81
2022/08/10 08:02:33;;;;;;;0.30;0.30;;;23.10;99.90;;;;;;4972096;28;20053;-82
2022/08/10 08:05:06;;;;;;;0.30;0.30;;;22.90;99.90;;;;;;4964324;28;20057;-82
2022/08/10 08:07:34;;;;;;;0.30;0.30;;;23.40;99.90;;;;;;4950383;28;20046;-81
2022/08/10 08:10:01;;;;;;;0.30;0.30;;;23.40;99.90;;;;;;4966615;28;20068;-81
2022/08/10 08:12:29;;;;;;;0.30;0.30;;;23.20;99.90;;;;;;4978726;28;20888;-81
2022/08/10 08:14:57;;;;;;;0.40;0.40;;;23.40;99.90;;;;;;4969941;28;20159;-81
2022/08/10 08:17:25;;;;;;;0.20;0.20;;;23.80;99.90;;;;;;4974912;28;20588;-81
2022/08/10 08:19:53;;;;;;;0.30;0.30;;;23.70;99.90;;;;;;4967770;28;20104;-81
2022/08/10 08:22:21;;;;;;;0.30;0.30;;;23.90;99.90;;;;;;4952319;28;20057;-83
2022/08/10 08:24:49;;;;;;;0.30;0.30;;;23.50;99.90;;;;;;4985827;28;20123;-80
2022/08/10 08:27:18;;;;;;;0.30;0.30;;;23.80;99.90;;;;;;4968024;28;20489;-82
2022/08/10 08:29:47;;;;;;;0.30;0.30;;;23.70;99.90;;;;;;4971256;28;20058;-83
2022/08/10 08:32:17;;;;;;;0.30;0.30;;;23.60;99.90;;;;;;4971618;28;20152;-82
2022/08/10 08:34:45;;;;;;;0.30;0.30;;;24.20;99.90;;;;;;4967590;28;20039;-83
2022/08/10 08:37:14;;;;;;;0.30;0.30;;;23.70;99.90;;;;;;4966460;28;20910;-80
2022/08/10 08:39:41;;;;;;;0.25;0.25;;;24.10;99.90;;;;;;4965574;28;20077;-81
2022/08/10 08:42:32;;;;;;;0.30;0.30;;;24.10;99.90;;;;;;4968448;28;20137;-80
2022/08/10 08:45:03;;;;;;;0.30;0.30;;;24.30;99.90;;;;;;4966038;28;20145;-82
2022/08/10 08:47:47;;;;;;;0.30;0.30;;;24.50;99.90;;;;;;4965727;28;20061;-82
2022/08/10 08:50:35;;;;;;;0.32;0.32;;;24.40;99.90;;;;;;4967649;28;20042;-81
2022/08/10 08:53:36;;;;;;;0.30;0.30;;;24.30;99.90;;;;;;4969911;28;20053;-82
2022/08/10 08:56:13;;;;;;;0.30;0.30;;;25.10;99.90;;;;;;4970535;28;20046;-82
2022/08/10 08:58:51;;;;;;;0.20;0.20;;;24.90;99.90;;;;;;4976375;28;20125;-82
2022/08/10 09:01:53;;;;;;;0.30;0.30;;;25.10;99.90;;;;;;4967373;28;20432;-82
2022/08/10 09:04:37;;;;;;;0.30;0.30;;;25.00;99.90;;;;;;4967780;28;20112;-83
2022/08/10 09:07:18;;;;;;;0.30;0.30;;;25.40;99.90;;;;;;4966538;28;20112;-81
2022/08/10 09:09:52;;;;;;;0.30;0.30;;;25.40;99.90;;;;;;4968790;28;20123;-82
2022/08/10 09:12:36;;;;;;;0.30;0.30;;;25.30;99.90;;;;;;4969417;28;20046;-82
2022/08/10 09:15:08;;;;;;;0.30;0.30;;;25.40;99.90;;;;;;4964112;28;20046;-81
2022/08/10 09:18:04;;;;;;;0.30;0.30;;;25.60;99.90;;;;;;4970310;28;20136;-82
2022/08/10 09:20:52;;;;;;;0.20;0.20;;;25.70;99.90;;;;;;4985033;28;20077;-81
2022/08/10 09:23:44;;;;;;;0.30;0.30;;;25.80;99.90;;;;;;4966944;28;20081;-83
2022/08/10 09:26:18;;;;;;;0.30;0.30;;;26.10;99.90;;;;;;4974986;28;20395;-83
2022/08/10 09:28:44;;;;;;;0.30;0.30;;;26.00;99.90;;;;;;4964146;28;20050;-82
2022/08/10 09:31:11;;;;;;;0.20;0.20;;;26.40;99.90;;;;;;4983709;28;20052;-82
2022/08/10 09:33:56;;;;;;;0.30;0.30;;;26.60;99.90;;;;;;4971355;28;20422;-81
2022/08/10 09:36:25;;;;;;;0.30;0.30;;;26.60;99.90;;;;;;4966887;28;20046;-82
2022/08/10 09:39:14;;;;;;;0.30;0.30;;;26.30;99.90;;;;;;4970072;28;20057;-80
2022/08/10 09:42:00;;;;;;;0.20;0.20;;;26.80;99.90;;;;;;4967532;28;20880;-84
2022/08/10 09:44:29;;;;;;;0.20;0.20;;;26.50;99.90;;;;;;4970048;28;20064;-81
2022/08/10 09:47:21;;;;;;;0.20;0.20;;;26.50;99.90;;;;;;4965741;28;20050;-84
2022/08/10 09:50:23;;;;;;;0.30;0.30;;;26.80;99.90;;;;;;4967744;28;20509;-80
2022/08/10 09:53:05;;;;;;;0.20;0.20;;;27.00;99.90;;;;;;4948435;28;20258;-81
2022/08/10 09:56:08;;;;;;;0.20;0.20;;;27.00;99.90;;;;;;4965442;28;20057;-84
2022/08/10 09:59:11;;;;;;;0.20;0.20;;;26.50;99.90;;;;;;4967960;28;20116;-82
2022/08/10 10:01:42;;;;;;;0.20;0.20;;;26.70;99.90;;;;;;4975868;28;20073;-84
2022/08/10 10:04:35;;;;;;;0.20;0.20;;;27.30;99.90;;;;;;4970389;28;20057;-83
2022/08/10 10:07:05;;;;;;;0.20;0.20;;;26.60;99.90;;;;;;4969807;28;20053;-82
2022/08/10 10:10:02;;;;;;;0.28;0.28;;;26.70;99.90;;;;;;4967511;28;20499;-81
2022/08/10 10:12:46;;;;;;;0.20;0.20;;;27.10;99.90;;;;;;4971791;28;21179;-81
2022/08/10 10:15:21;;;;;;;0.20;0.20;;;27.50;99.90;;;;;;4969824;28;20047;-80
2022/08/10 10:18:06;;;;;;;0.20;0.20;;;27.60;99.90;;;;;;4970830;28;20064;-81
2022/08/10 10:20:54;;;;;;;0.20;0.20;;;27.90;99.90;;;;;;4970590;28;20052;-82
2022/08/10 10:23:49;;;;;;;0.25;0.25;;;27.60;99.90;;;;;;4969718;28;20053;-83
2022/08/10 10:26:39;;;;;;;0.20;0.20;;;27.80;99.10;;;;;;4970878;28;20058;-81
2022/08/10 10:29:25;;;;;;;0.20;0.20;;;27.40;98.60;;;;;;4968043;28;20848;-81
2022/08/10 10:32:08;;;;;;;0.20;0.20;;;27.70;99.00;;;;;;4986370;28;20646;-83
2022/08/10 10:34:44;;;;;;;0.20;0.20;;;27.70;98.60;;;;;;4960551;28;20129;-81
2022/08/10 10:37:12;;;;;;;0.25;0.25;;;28.10;98.50;;;;;;4958943;28;20050;-81
2022/08/10 10:39:50;;;;;;;0.20;0.20;;;28.00;99.90;;;;;;4960607;28;20137;-81
2022/08/10 10:42:44;;;;;;;0.20;0.20;;;28.10;98.40;;;;;;4958398;28;20789;-82
2022/08/10 10:45:52;;;;;;;0.28;0.28;;;28.00;99.30;;;;;;4961690;28;20046;-85
2022/08/10 10:48:20;;;;;;;0.20;0.20;;;28.40;97.30;;;;;;4961775;28;20127;-82
2022/08/10 10:51:11;;;;;;;0.20;0.20;;;27.90;96.20;;;;;;4951410;28;20057;-83
2022/08/10 10:53:51;;;;;;;0.22;0.22;;;27.70;97.10;;;;;;4962227;28;20760;-83
2022/08/10 10:56:18;;;;;;;0.20;0.20;;;28.20;96.70;;;;;;4951089;28;20100;-83
2022/08/10 10:59:14;;;;;;;0.20;0.20;;;28.20;96.90;;;;;;4944932;28;20181;-85
2022/08/10 11:01:56;;;;;;;0.25;0.25;;;28.30;96.90;;;;;;4955996;28;20060;-83
2022/08/10 11:04:57;;;;;;;0.20;0.20;;;28.70;96.30;;;;;;4952062;28;20050;-83
2022/08/10 11:07:54;;;;;;;0.20;0.20;;;28.50;95.70;;;;;;4952409;28;20054;-83
2022/08/10 11:10:29;;;;;;;0.30;0.30;;;28.90;94.60;;;;;;4955221;28;20136;-86
2022/08/10 11:13:11;;;;;;;0.20;0.20;;;28.90;95.00;;;;;;4954638;28;20046;-83
2022/08/10 11:15:41;;;;;;;0.20;0.20;;;28.80;95.00;;;;;;4940457;28;20045;-83
2022/08/10 11:18:34;;;;;;;0.20;0.20;;;28.00;94.20;;;;;;4955040;28;20050;-85
2022/08/10 11:21:26;;;;;;;0.20;0.20;;;28.40;93.00;;;;;;4931880;28;20587;-85
2022/08/10 11:24:01;;;;;;;0.20;0.20;;;27.90;94.90;;;;;;4942793;28;20157;-82
2022/08/10 11:26:50;;;;;;;0.22;0.22;;;28.60;94.40;;;;;;4945458;28;20049;-82
2022/08/10 11:29:33;;;;;;;0.20;0.20;;;28.50;93.10;;;;;;4937966;28;20058;-82
2022/08/10 11:32:10;;;;;;;0.20;0.20;;;28.70;93.40;;;;;;4952002;28;20057;-84
2022/08/10 11:35:00;;;;;;;0.25;0.25;;;29.00;93.70;;;;;;4951162;28;20053;-81
2022/08/10 11:38:07;;;;;;;0.20;0.20;;;29.00;92.70;;;;;;4948874;28;20058;-82
2022/08/10 11:40:44;;;;;;;0.30;0.30;;;29.10;94.20;;;;;;4945236;28;20500;-82
2022/08/10 11:43:28;;;;;;;0.20;0.20;;;29.40;93.90;;;;;;4943353;28;20057;-85
2022/08/10 11:46:07;;;;;;;0.20;0.20;;;29.20;92.90;;;;;;4949085;28;20054;-84
2022/08/10 11:48:49;;;;;;;0.20;0.20;;;29.30;92.50;;;;;;4969238;28;20056;-83
2022/08/10 11:51:21;;;;;;;0.20;0.20;;;28.30;90.60;;;;;;4963378;28;21648;-82
2022/08/10 11:54:09;;;;;;;0.30;0.30;;;29.30;93.00;;;;;;4960641;28;20156;-83
2022/08/10 11:56:49;;;;;;;0.20;0.20;;;29.70;91.50;;;;;;4958138;28;20846;-82
2022/08/10 12:02:10;;;;;;;0.30;0.30;;;28.80;90.00;;;;;;4959617;28;20085;-83
2022/08/10 12:04:44;;;;;;;0.20;0.20;;;28.50;91.40;;;;;;4956525;28;21097;-83
2022/08/10 12:07:11;;;;;;;0.20;0.20;;;28.00;90.30;;;;;;4957509;28;20060;-83
2022/08/10 12:09:37;;;;;;;0.30;0.30;;;28.50;91.00;;;;;;4962735;28;20050;-83
2022/08/10 12:12:05;;;;;;;0.30;0.30;;;29.00;91.20;;;;;;4973877;28;20146;-79
2022/08/10 12:14:53;;;;;;;0.30;0.30;;;28.60;91.00;;;;;;4955616;28;20058;-81
2022/08/10 12:17:38;;;;;;;0.30;0.30;;;28.90;90.20;;;;;;4960116;28;20168;-85
2022/08/10 12:20:16;;;;;;;0.30;0.30;;;29.10;90.00;;;;;;4978259;28;20065;-81
2022/08/10 12:22:47;;;;;;;0.30;0.30;;;29.40;91.30;;;;;;4966997;28;20822;-83
2022/08/10 12:25:19;;;;;;;0.30;0.30;;;29.90;90.90;;;;;;4959549;28;20074;-81
2022/08/10 12:28:00;;;;;;;0.30;0.30;;;30.10;90.90;;;;;;4963318;28;20058;-82
2022/08/10 12:30:32;;;;;;;0.30;0.30;;;30.10;91.50;;;;;;4960766;28;20129;-85
2022/08/10 12:33:12;;;;;;;0.20;0.20;;;30.30;91.00;;;;;;4961917;28;20056;-82
2022/08/10 12:35:56;;;;;;;0.20;0.20;;;29.40;88.10;;;;;;4963338;28;20061;-83
2022/08/10 12:38:45;;;;;;;0.20;0.20;;;29.70;90.50;;;;;;4973126;28;20060;-83
2022/08/10 12:41:24;;;;;;;0.20;0.20;;;29.60;87.50;;;;;;4955635;28;20586;-82
2022/08/10 12:44:00;;;;;;;0.20;0.20;;;29.10;86.10;;;;;;4968640;28;20066;-81
2022/08/10 12:46:29;;;;;;;0.30;0.30;;;28.90;87.30;;;;;;4964187;28;20042;-82
2022/08/10 12:49:16;;;;;;;0.30;0.30;;;29.00;90.10;;;;;;4963173;28;20492;-85
2022/08/10 12:51:46;;;;;;;0.20;0.20;;;29.70;90.80;;;;;;4962071;28;20099;-83
2022/08/10 12:54:17;;;;;;;0.30;0.30;;;29.10;85.10;;;;;;4956913;28;20058;-82
2022/08/10 12:56:51;;;;;;;0.20;0.20;;;28.70;83.70;;;;;;4956835;28;20066;-83
2022/08/10 12:59:19;;;;;;;0.28;0.28;;;28.70;85.70;;;;;;4959092;28;20482;-81
2022/08/10 13:01:51;;;;;;;0.30;0.30;;;28.60;85.90;;;;;;4962799;28;20104;-82
2022/08/10 13:04:26;;;;;;;0.20;0.20;;;28.80;84.10;;;;;;4963468;28;20046;-82
2022/08/10 13:06:52;;;;;;;0.32;0.32;;;28.60;85.00;;;;;;4963286;28;20125;-83
2022/08/10 13:09:23;;;;;;;0.30;0.30;;;28.60;83.50;;;;;;4963724;28;20149;-82
2022/08/10 13:11:53;;;;;;;0.30;0.30;;;29.40;85.20;;;;;;4961683;28;20057;-83
2022/08/10 13:14:31;;;;;;;0.20;0.20;;;29.30;87.20;;;;;;4964345;28;20050;-83
2022/08/10 13:16:58;;;;;;;0.30;0.30;;;29.70;86.80;;;;;;4963207;28;20061;-83
2022/08/10 13:19:28;;;;;;;0.20;0.20;;;28.90;82.10;;;;;;4963017;28;20579;-83
2022/08/10 13:21:56;;;;;;;0.30;0.30;;;28.80;83.70;;;;;;4967038;28;20054;-83
2022/08/10 13:24:36;;;;;;;0.30;0.30;;;29.20;83.90;;;;;;4963292;28;20042;-85
2022/08/10 13:27:07;;;;;;;0.28;0.28;;;29.00;83.00;;;;;;4971208;28;20054;-83